Etusivu
METAR-TAF:

METAR-TAF

Lentoasemat :

Plainview, Texas, Yhdysvallat

Leveyspiiri: 34-10-05N, Pituuspiiri: 101-43-02W, korkeus merenpinnasta: 1028 m

Tämänhetkinen sää

Tämä raportti tehtiin 10 minuuttia sitten, kello 09.55 UTC
Tuuli 9 kn pohjoisesta
Lämpötila 3°C
Kosteus 87%
Ilmanpaine 1024 hPa
Näkyvyys: 16.1 km
selkeää

METAR: KPVW 060955Z AUTO 35009KT 10SM CLR 03/01 A3024 RMK AO2 T00280008

Aika: 04:05 (10:05 UTC)

Sääennuste

Tämä raportti tehtiin 4 tuntia ja 45 minuuttia sitten, kello 05.20 UTC
Ennuste voimassa 06. päivästä klo 06 UTC - 07. päivään klo 06 UTC
Tuuli 11 kn pohjoisen/luoteesta
Näkyvyys: 10 km
selkeää
From 06. päivästä klo 1600 UTC
Tuuli 11 kn pohjoisesta
Näkyvyys: 10 km
Hajanaisia pilviä 25000 ft:n korkeudessa
From 06. päivästä klo 2100 UTC
Tuuli 4 kn eri suunnista
Näkyvyys: 10 km
Hajanaisia pilviä 25000 ft:n korkeudessa

TAF: KPVW 060520Z 0606/0706 34011KT P6SM SKC FM061600 36011KT P6SM SCT250 FM062100 VRB04KT P6SM SCT250

Säähavainnot ja -ennusteet yli 4000 lentoasemalta (METAR- ja TAF-raportit).

Käytössä olevat sääasemat on merkitty karttaan keltaisilla ja punaisilla pisteillä.

Aseta hiiri pisteen päälle nähdäksesi sääaseman nimen.

Klikkaa sitten nähdäksesi säähavainnot ja -ennusteet.

Kartan vaihtaminen: klikkaa mustalla rastilla varustettuja vihreitä pisteitä, niin voit zoomata sisään; viivalla varustettua vihreää pistettä, niin voit zoomata ulos tai vihreitä nuolia, niin pääset viereisille kartoille.


METAR-TAF: